Jacksonville, NC (28540)

5:11 PM EDT on August 23, 2016 (GMT -0400)
Jacksonville-Northwoods SkyNet | | Change Station

Elev 21 ft 34.77 °N, 77.44 °W | Updated 7 seconds ago

Mostly Cloudy
Mostly Cloudy
90.0 °F
Feels Like 89 °F
N
0.0
Wind Variable Wind from North
Gusts 4.5 mph

Today
High -- | Low -- °F
--% Chance of Precip.
Yesterday
High -- | Low -- °F
Precip. -- in
Pressure 30.22 in
Visibility 10.0 miles
Clouds Scattered Clouds 5500 ft
Mostly Cloudy 7500 ft
Heat Index 89 °F
Dew Point 59 °F
Humidity 36%
Rainfall 0.00 in
Snow Depth Not available.
6:36 AM 7:47 PM
Waning Gibbous, 64% visible
METAR KNCA 232056Z 11008G15KT 080V150 10SM SCT055 BKN075 29/17 A3022 RMK AO2 SLP234 T02940167 56019
Pressure 30.22 in
Visibility 10.0 miles
Clouds Scattered Clouds 5500 ft
Mostly Cloudy 7500 ft
Heat Index 89 °F
Dew Point 59 °F
Humidity 36%
Rainfall 0.00 in
Snow Depth Not available.
6:36 AM 7:47 PM
Waning Gibbous, 64% visible
METAR KNCA 232056Z 11008G15KT 080V150 10SM SCT055 BKN075 29/17 A3022 RMK AO2 SLP234 T02940167 56019
We continue to monitor Invest 99L for the possibility of development into a tropical depression or storm as it approaches the Lesser Antilles, then heads in the general direction of the Bahamas late in the week.

Invest 99L will potentially be impactful in the near-future as it spreads locally heavy rain into the Leeward Islands and eventually Puerto Rico. A flash flood watch is in effect for the Virgin Islands and Puerto Rico from overnight tonight until noon on Thursday.

10-Day Weather Forecast

Almanac

Astronomy

Aug. 23, 2016 Rise Set
Actual Time
Civil Twilight
Nautical Twilight
Astronomical Twilight
Moon
Length of Visible Light
Length of Day
Tomorrow will be .
, % of the Moon is Illuminated

Today's Extremes

State Highs State Lows

Community

WunderPhotos

Upload Photos

1,934,456 photos uploaded!

WunderBlog® & News

Nearby

Air Quality

  Air Quality AQ Index Pollutant
Not available.

Snow Depth

Station Depth Elevation

Earthquake Activity

City Distance Mag. Time & Date
Minimum magnitude displayed is 2.5.

Coastal Water Temperatures

Place Temperature

Stations

Nearby Weather Stations

Station Location Temp. Windchill Dew Point Humidity Wind Precip. Elev Updated Type
                   

Watches & Warnings

There are currently no watches in effect.